BERRYESSA (BER)

Elevation: 456' · PUTAH CR basin · Operator: US Bureau of Reclamation


Station comments:

07/01/2016Reservoir change sensor started again 07/01/2016. Previously ended 05/17/1999.


Provisional data, subject to change.
Query executed Saturday at 20:39:44   clock

Select a sensor type for a plot of data.
Note: Reservoir Flows are daily averages.

Earlier

Date RES ELE    STORAGE    RES CHG    OUTFLOW    INFLOW    PPT INC   
 FEET   AF   AF   CFS   CFS   INCHES  
08/26/2016 401.41 897251 -1196 440 -58 0.00
08/27/2016 401.34 896206 -1045 441 10 0.00
08/28/2016 401.25 894863 -1343 407 -183 0.00
08/29/2016 401.19 893969 -894 412 48 0.00
08/30/2016 401.13 893074 -895 386 17 0.00
08/31/2016 401.05 891882 -1192 372 -105 0.00
09/01/2016 401.00 891138 -744 372 103 0.00
09/02/2016 400.94 890245 -893 361 3 0.00
09/03/2016 400.88 889352 -893 376 14 0.00
09/04/2016 400.82 888460 -892 374 25 0.00
09/05/2016 400.74 887271 -1189 377 -144 0.00
09/06/2016 400.68 886379 -892 386 28 0.00
09/07/2016 400.61 885340 -1039 404 -37 0.00
09/08/2016 400.55 884449 -891 402 54 0.00
09/09/2016 400.48 883411 -1038 388 -34 0.00
09/10/2016 400.41 882373 -1038 369 -58 0.00
09/11/2016 400.36 881632 -741 340 67 0.00
09/12/2016 400.27 880299 -1333 349 -222 0.00
09/13/2016 400.21 879411 -888 366 0 0.00
09/14/2016 400.15 878523 -888 370 -14 0.00
09/15/2016 400.09 877635 -888 370 -9 0.00
09/16/2016 400.03 876748 -887 370 5 0.00
09/17/2016 399.97 875862 -886 335 -25 0.00
09/18/2016 399.93 875271 -591 324 122 0.00
09/19/2016 399.88 874537 -734 -- -- --
09/20/2016 399.82 873652 -885 -- -- --
09/21/2016 399.74 872473 -1179 -- -- --
09/22/2016 399.67 871441 -1032 -- -- --
09/23/2016 399.60 870410 -1030 -- -- --
09/24/2016 -- -- -- -- -- --

Later | Latest

Warning! This data is preliminary and subject to revision.

Show BER Map | Plot BER Data | 1 Month BER Data | Real-Time BER Data | BER Info